sensor_id;sensor_type;location;lat;lon;timestamp;P1;durP1;ratioP1;P2;durP2;ratioP2
4754;SDS011;2391;47.212;7.542;2023-05-24T00:01:19;6.13;;;5.00;;
4754;SDS011;2391;47.212;7.542;2023-05-24T00:03:49;5.53;;;5.10;;
4754;SDS011;2391;47.212;7.542;2023-05-24T00:06:14;6.27;;;5.40;;
4754;SDS011;2391;47.212;7.542;2023-05-24T00:08:41;5.80;;;5.20;;
4754;SDS011;2391;47.212;7.542;2023-05-24T00:11:07;5.70;;;5.10;;
4754;SDS011;2391;47.212;7.542;2023-05-24T00:13:32;6.00;;;5.40;;
4754;SDS011;2391;47.212;7.542;2023-05-24T00:15:58;7.70;;;5.10;;
4754;SDS011;2391;47.212;7.542;2023-05-24T00:18:24;5.63;;;5.13;;
4754;SDS011;2391;47.212;7.542;2023-05-24T00:20:50;4.93;;;4.63;;
4754;SDS011;2391;47.212;7.542;2023-05-24T00:23:16;5.20;;;4.80;;
4754;SDS011;2391;47.212;7.542;2023-05-24T00:25:41;5.97;;;5.37;;
4754;SDS011;2391;47.212;7.542;2023-05-24T00:28:07;5.00;;;4.43;;
4754;SDS011;2391;47.212;7.542;2023-05-24T00:30:33;5.43;;;4.70;;
4754;SDS011;2391;47.212;7.542;2023-05-24T00:32:59;5.47;;;4.50;;
4754;SDS011;2391;47.212;7.542;2023-05-24T00:35:24;5.07;;;4.33;;
4754;SDS011;2391;47.212;7.542;2023-05-24T00:37:50;4.97;;;4.57;;
4754;SDS011;2391;47.212;7.542;2023-05-24T00:40:16;6.60;;;4.87;;
4754;SDS011;2391;47.212;7.542;2023-05-24T00:42:42;7.40;;;4.80;;
4754;SDS011;2391;47.212;7.542;2023-05-24T00:45:08;5.00;;;4.60;;
4754;SDS011;2391;47.212;7.542;2023-05-24T00:47:34;5.50;;;5.00;;
4754;SDS011;2391;47.212;7.542;2023-05-24T00:50:01;5.43;;;4.70;;
4754;SDS011;2391;47.212;7.542;2023-05-24T00:52:27;5.80;;;5.20;;
4754;SDS011;2391;47.212;7.542;2023-05-24T00:54:53;5.90;;;4.63;;
4754;SDS011;2391;47.212;7.542;2023-05-24T00:57:18;4.70;;;4.40;;
4754;SDS011;2391;47.212;7.542;2023-05-24T00:59:45;7.50;;;5.30;;
4754;SDS011;2391;47.212;7.542;2023-05-24T01:02:11;5.03;;;4.63;;
4754;SDS011;2391;47.212;7.542;2023-05-24T01:04:37;5.50;;;4.90;;
4754;SDS011;2391;47.212;7.542;2023-05-24T01:07:06;5.13;;;4.47;;
4754;SDS011;2391;47.212;7.542;2023-05-24T01:15:17;5.23;;;4.73;;
4754;SDS011;2391;47.212;7.542;2023-05-24T01:20:30;5.77;;;5.17;;
4754;SDS011;2391;47.212;7.542;2023-05-24T01:25:47;6.10;;;5.30;;
4754;SDS011;2391;47.212;7.542;2023-05-24T01:28:30;8.00;;;5.27;;
4754;SDS011;2391;47.212;7.542;2023-05-24T01:30:58;7.90;;;5.27;;
4754;SDS011;2391;47.212;7.542;2023-05-24T01:33:25;5.80;;;5.20;;
4754;SDS011;2391;47.212;7.542;2023-05-24T01:35:51;6.27;;;5.67;;
4754;SDS011;2391;47.212;7.542;2023-05-24T01:38:17;7.50;;;5.90;;
4754;SDS011;2391;47.212;7.542;2023-05-24T01:40:42;7.63;;;5.60;;
4754;SDS011;2391;47.212;7.542;2023-05-24T01:46:02;5.73;;;5.20;;
4754;SDS011;2391;47.212;7.542;2023-05-24T01:51:52;8.27;;;5.50;;
4754;SDS011;2391;47.212;7.542;2023-05-24T01:54:22;7.20;;;6.57;;
4754;SDS011;2391;47.212;7.542;2023-05-24T01:56:54;8.30;;;5.97;;
4754;SDS011;2391;47.212;7.542;2023-05-24T01:59:21;8.93;;;6.87;;
4754;SDS011;2391;47.212;7.542;2023-05-24T02:01:49;6.63;;;6.03;;
4754;SDS011;2391;47.212;7.542;2023-05-24T02:04:15;5.90;;;5.40;;
4754;SDS011;2391;47.212;7.542;2023-05-24T02:06:41;6.27;;;5.70;;
4754;SDS011;2391;47.212;7.542;2023-05-24T02:09:07;8.77;;;5.73;;
4754;SDS011;2391;47.212;7.542;2023-05-24T02:11:33;6.57;;;5.97;;
4754;SDS011;2391;47.212;7.542;2023-05-24T02:13:59;5.77;;;5.23;;
4754;SDS011;2391;47.212;7.542;2023-05-24T02:16:24;6.17;;;5.57;;
4754;SDS011;2391;47.212;7.542;2023-05-24T02:18:51;6.90;;;6.13;;
4754;SDS011;2391;47.212;7.542;2023-05-24T02:21:17;6.10;;;5.60;;
4754;SDS011;2391;47.212;7.542;2023-05-24T02:23:43;7.47;;;5.80;;
4754;SDS011;2391;47.212;7.542;2023-05-24T02:26:08;6.40;;;5.80;;
4754;SDS011;2391;47.212;7.542;2023-05-24T02:28:38;7.47;;;6.03;;
4754;SDS011;2391;47.212;7.542;2023-05-24T02:31:03;6.63;;;6.00;;
4754;SDS011;2391;47.212;7.542;2023-05-24T02:33:30;9.20;;;5.53;;
4754;SDS011;2391;47.212;7.542;2023-05-24T02:35:56;6.53;;;5.93;;
4754;SDS011;2391;47.212;7.542;2023-05-24T02:38:21;7.67;;;6.53;;
4754;SDS011;2391;47.212;7.542;2023-05-24T02:40:47;11.90;;;6.53;;
4754;SDS011;2391;47.212;7.542;2023-05-24T02:43:13;7.60;;;6.37;;
4754;SDS011;2391;47.212;7.542;2023-05-24T02:45:39;7.40;;;6.70;;
4754;SDS011;2391;47.212;7.542;2023-05-24T02:48:04;7.33;;;6.53;;
4754;SDS011;2391;47.212;7.542;2023-05-24T02:50:30;7.83;;;6.80;;
4754;SDS011;2391;47.212;7.542;2023-05-24T02:52:56;8.07;;;6.83;;
4754;SDS011;2391;47.212;7.542;2023-05-24T02:55:22;8.33;;;7.00;;
4754;SDS011;2391;47.212;7.542;2023-05-24T02:57:47;12.57;;;7.37;;
4754;SDS011;2391;47.212;7.542;2023-05-24T03:00:13;7.97;;;6.50;;
4754;SDS011;2391;47.212;7.542;2023-05-24T03:02:40;7.70;;;6.53;;
4754;SDS011;2391;47.212;7.542;2023-05-24T03:05:06;7.43;;;6.73;;
4754;SDS011;2391;47.212;7.542;2023-05-24T03:07:32;12.87;;;7.37;;
4754;SDS011;2391;47.212;7.542;2023-05-24T03:09:58;7.87;;;6.73;;
4754;SDS011;2391;47.212;7.542;2023-05-24T03:12:23;9.50;;;6.80;;
4754;SDS011;2391;47.212;7.542;2023-05-24T03:14:49;14.87;;;7.30;;
4754;SDS011;2391;47.212;7.542;2023-05-24T03:17:15;10.83;;;6.60;;
4754;SDS011;2391;47.212;7.542;2023-05-24T03:19:41;7.23;;;6.50;;
4754;SDS011;2391;47.212;7.542;2023-05-24T03:22:06;13.00;;;7.87;;
4754;SDS011;2391;47.212;7.542;2023-05-24T03:24:32;9.13;;;7.27;;
4754;SDS011;2391;47.212;7.542;2023-05-24T03:26:58;8.33;;;7.00;;
4754;SDS011;2391;47.212;7.542;2023-05-24T03:29:25;9.17;;;7.67;;
4754;SDS011;2391;47.212;7.542;2023-05-24T03:31:50;11.17;;;8.30;;
4754;SDS011;2391;47.212;7.542;2023-05-24T03:34:16;12.03;;;8.97;;
4754;SDS011;2391;47.212;7.542;2023-05-24T03:36:42;9.97;;;7.60;;
4754;SDS011;2391;47.212;7.542;2023-05-24T03:39:08;13.10;;;9.10;;
4754;SDS011;2391;47.212;7.542;2023-05-24T03:41:34;11.87;;;7.80;;
4754;SDS011;2391;47.212;7.542;2023-05-24T03:44:00;10.20;;;8.70;;
4754;SDS011;2391;47.212;7.542;2023-05-24T03:46:25;12.40;;;8.70;;
4754;SDS011;2391;47.212;7.542;2023-05-24T03:48:51;11.43;;;8.23;;
4754;SDS011;2391;47.212;7.542;2023-05-24T03:51:17;10.60;;;8.90;;
4754;SDS011;2391;47.212;7.542;2023-05-24T03:53:42;14.40;;;8.80;;
4754;SDS011;2391;47.212;7.542;2023-05-24T03:56:08;8.93;;;8.03;;
4754;SDS011;2391;47.212;7.542;2023-05-24T03:58:34;11.20;;;8.63;;
4754;SDS011;2391;47.212;7.542;2023-05-24T04:01:00;12.40;;;8.57;;
4754;SDS011;2391;47.212;7.542;2023-05-24T04:03:26;10.13;;;7.93;;
4754;SDS011;2391;47.212;7.542;2023-05-24T04:05:52;14.97;;;8.70;;
4754;SDS011;2391;47.212;7.542;2023-05-24T04:08:18;15.80;;;8.63;;
4754;SDS011;2391;47.212;7.542;2023-05-24T04:10:44;16.07;;;9.30;;
4754;SDS011;2391;47.212;7.542;2023-05-24T04:13:09;11.67;;;9.20;;
4754;SDS011;2391;47.212;7.542;2023-05-24T04:15:35;11.10;;;8.60;;
4754;SDS011;2391;47.212;7.542;2023-05-24T04:18:02;11.17;;;9.17;;
4754;SDS011;2391;47.212;7.542;2023-05-24T04:20:28;11.43;;;8.50;;
4754;SDS011;2391;47.212;7.542;2023-05-24T04:22:54;11.90;;;9.00;;
4754;SDS011;2391;47.212;7.542;2023-05-24T04:25:20;14.10;;;9.20;;
4754;SDS011;2391;47.212;7.542;2023-05-24T04:27:46;13.50;;;9.00;;
4754;SDS011;2391;47.212;7.542;2023-05-24T04:30:14;16.63;;;9.80;;
4754;SDS011;2391;47.212;7.542;2023-05-24T04:32:41;11.27;;;8.50;;
4754;SDS011;2391;47.212;7.542;2023-05-24T04:35:09;14.30;;;9.50;;
4754;SDS011;2391;47.212;7.542;2023-05-24T04:37:35;12.20;;;9.13;;
4754;SDS011;2391;47.212;7.542;2023-05-24T04:40:01;15.07;;;9.70;;
4754;SDS011;2391;47.212;7.542;2023-05-24T04:42:28;13.93;;;9.40;;
4754;SDS011;2391;47.212;7.542;2023-05-24T04:44:56;14.00;;;9.43;;
4754;SDS011;2391;47.212;7.542;2023-05-24T04:47:22;15.03;;;8.77;;
4754;SDS011;2391;47.212;7.542;2023-05-24T04:49:48;12.67;;;9.20;;
4754;SDS011;2391;47.212;7.542;2023-05-24T04:52:15;11.47;;;8.97;;
4754;SDS011;2391;47.212;7.542;2023-05-24T04:54:41;12.13;;;9.10;;
4754;SDS011;2391;47.212;7.542;2023-05-24T04:57:07;12.93;;;9.40;;
4754;SDS011;2391;47.212;7.542;2023-05-24T04:59:33;14.30;;;9.57;;
4754;SDS011;2391;47.212;7.542;2023-05-24T05:01:58;14.90;;;9.00;;
4754;SDS011;2391;47.212;7.542;2023-05-24T05:04:24;12.53;;;9.53;;
4754;SDS011;2391;47.212;7.542;2023-05-24T05:06:50;13.50;;;10.30;;
4754;SDS011;2391;47.212;7.542;2023-05-24T05:09:16;16.30;;;9.17;;
4754;SDS011;2391;47.212;7.542;2023-05-24T05:11:44;14.03;;;9.07;;
4754;SDS011;2391;47.212;7.542;2023-05-24T05:14:11;17.30;;;9.00;;
4754;SDS011;2391;47.212;7.542;2023-05-24T05:16:37;12.80;;;9.40;;
4754;SDS011;2391;47.212;7.542;2023-05-24T05:19:03;19.33;;;9.90;;
4754;SDS011;2391;47.212;7.542;2023-05-24T05:21:29;14.00;;;9.60;;
4754;SDS011;2391;47.212;7.542;2023-05-24T05:23:59;14.60;;;9.60;;
4754;SDS011;2391;47.212;7.542;2023-05-24T05:26:26;12.87;;;8.80;;
4754;SDS011;2391;47.212;7.542;2023-05-24T05:28:52;18.13;;;8.90;;
4754;SDS011;2391;47.212;7.542;2023-05-24T05:31:21;13.30;;;9.07;;
4754;SDS011;2391;47.212;7.542;2023-05-24T05:33:47;15.60;;;9.30;;
4754;SDS011;2391;47.212;7.542;2023-05-24T05:36:14;15.87;;;9.17;;
4754;SDS011;2391;47.212;7.542;2023-05-24T05:38:40;12.43;;;8.97;;
4754;SDS011;2391;47.212;7.542;2023-05-24T05:41:05;11.30;;;8.80;;
4754;SDS011;2391;47.212;7.542;2023-05-24T05:43:31;15.90;;;8.70;;
4754;SDS011;2391;47.212;7.542;2023-05-24T05:45:57;14.57;;;9.20;;
4754;SDS011;2391;47.212;7.542;2023-05-24T05:48:24;11.47;;;8.70;;
4754;SDS011;2391;47.212;7.542;2023-05-24T05:50:50;10.73;;;8.50;;
4754;SDS011;2391;47.212;7.542;2023-05-24T05:53:16;12.03;;;8.60;;
4754;SDS011;2391;47.212;7.542;2023-05-24T05:55:42;10.63;;;8.57;;
4754;SDS011;2391;47.212;7.542;2023-05-24T05:58:08;17.23;;;8.63;;
4754;SDS011;2391;47.212;7.542;2023-05-24T06:00:34;11.90;;;8.70;;
4754;SDS011;2391;47.212;7.542;2023-05-24T06:03:00;14.10;;;8.47;;
4754;SDS011;2391;47.212;7.542;2023-05-24T06:05:25;14.93;;;8.03;;
4754;SDS011;2391;47.212;7.542;2023-05-24T06:07:51;12.83;;;8.00;;
4754;SDS011;2391;47.212;7.542;2023-05-24T06:10:17;10.63;;;7.30;;
4754;SDS011;2391;47.212;7.542;2023-05-24T06:12:43;12.90;;;6.60;;
4754;SDS011;2391;47.212;7.542;2023-05-24T06:15:09;8.23;;;6.90;;
4754;SDS011;2391;47.212;7.542;2023-05-24T06:17:35;9.90;;;6.97;;
4754;SDS011;2391;47.212;7.542;2023-05-24T06:20:04;11.87;;;7.87;;
4754;SDS011;2391;47.212;7.542;2023-05-24T06:22:35;11.37;;;7.97;;
4754;SDS011;2391;47.212;7.542;2023-05-24T06:25:03;9.03;;;7.00;;
4754;SDS011;2391;47.212;7.542;2023-05-24T06:27:29;7.70;;;6.73;;
4754;SDS011;2391;47.212;7.542;2023-05-24T06:29:55;9.70;;;6.70;;
4754;SDS011;2391;47.212;7.542;2023-05-24T06:32:21;9.47;;;6.87;;
4754;SDS011;2391;47.212;7.542;2023-05-24T06:34:46;8.17;;;6.40;;
4754;SDS011;2391;47.212;7.542;2023-05-24T06:37:12;10.30;;;6.67;;
4754;SDS011;2391;47.212;7.542;2023-05-24T06:39:39;8.83;;;6.40;;
4754;SDS011;2391;47.212;7.542;2023-05-24T06:42:05;9.17;;;6.83;;
4754;SDS011;2391;47.212;7.542;2023-05-24T06:44:31;8.60;;;5.53;;
4754;SDS011;2391;47.212;7.542;2023-05-24T06:47:02;7.83;;;5.50;;
4754;SDS011;2391;47.212;7.542;2023-05-24T06:49:28;7.80;;;6.20;;
4754;SDS011;2391;47.212;7.542;2023-05-24T06:51:54;8.53;;;6.20;;
4754;SDS011;2391;47.212;7.542;2023-05-24T06:54:20;8.77;;;6.40;;
4754;SDS011;2391;47.212;7.542;2023-05-24T06:56:46;7.83;;;5.10;;
4754;SDS011;2391;47.212;7.542;2023-05-24T06:59:11;6.10;;;5.40;;
4754;SDS011;2391;47.212;7.542;2023-05-24T07:01:38;9.33;;;5.77;;
4754;SDS011;2391;47.212;7.542;2023-05-24T07:04:04;7.97;;;6.70;;
4754;SDS011;2391;47.212;7.542;2023-05-24T07:06:30;8.00;;;5.43;;
4754;SDS011;2391;47.212;7.542;2023-05-24T07:08:59;6.33;;;5.73;;
4754;SDS011;2391;47.212;7.542;2023-05-24T07:11:26;15.20;;;5.97;;
4754;SDS011;2391;47.212;7.542;2023-05-24T07:13:52;7.30;;;5.67;;
4754;SDS011;2391;47.212;7.542;2023-05-24T07:16:18;7.20;;;5.70;;
4754;SDS011;2391;47.212;7.542;2023-05-24T07:18:44;9.30;;;6.03;;
4754;SDS011;2391;47.212;7.542;2023-05-24T07:21:10;6.77;;;5.60;;
4754;SDS011;2391;47.212;7.542;2023-05-24T07:23:36;8.80;;;6.27;;
4754;SDS011;2391;47.212;7.542;2023-05-24T07:26:02;7.10;;;6.40;;
4754;SDS011;2391;47.212;7.542;2023-05-24T07:28:28;8.63;;;6.30;;
4754;SDS011;2391;47.212;7.542;2023-05-24T07:30:54;8.70;;;6.57;;
4754;SDS011;2391;47.212;7.542;2023-05-24T07:33:20;9.13;;;6.63;;
4754;SDS011;2391;47.212;7.542;2023-05-24T07:35:46;7.63;;;6.13;;
4754;SDS011;2391;47.212;7.542;2023-05-24T07:38:14;7.27;;;5.87;;
4754;SDS011;2391;47.212;7.542;2023-05-24T07:40:39;9.73;;;6.30;;
4754;SDS011;2391;47.212;7.542;2023-05-24T07:43:05;10.57;;;6.20;;
4754;SDS011;2391;47.212;7.542;2023-05-24T07:45:31;9.80;;;6.30;;
4754;SDS011;2391;47.212;7.542;2023-05-24T07:47:57;14.70;;;6.60;;
4754;SDS011;2391;47.212;7.542;2023-05-24T07:50:22;7.20;;;5.67;;
4754;SDS011;2391;47.212;7.542;2023-05-24T07:52:48;6.90;;;5.70;;
4754;SDS011;2391;47.212;7.542;2023-05-24T07:55:14;6.33;;;5.60;;
4754;SDS011;2391;47.212;7.542;2023-05-24T07:57:40;7.97;;;6.10;;
4754;SDS011;2391;47.212;7.542;2023-05-24T08:00:06;7.43;;;6.43;;
4754;SDS011;2391;47.212;7.542;2023-05-24T08:02:37;6.97;;;5.73;;
4754;SDS011;2391;47.212;7.542;2023-05-24T08:05:03;6.60;;;5.60;;
4754;SDS011;2391;47.212;7.542;2023-05-24T08:07:29;6.80;;;6.10;;
4754;SDS011;2391;47.212;7.542;2023-05-24T08:09:55;11.50;;;6.50;;
4754;SDS011;2391;47.212;7.542;2023-05-24T08:12:21;8.43;;;6.13;;
4754;SDS011;2391;47.212;7.542;2023-05-24T08:14:47;9.50;;;5.80;;
4754;SDS011;2391;47.212;7.542;2023-05-24T08:17:13;9.73;;;6.60;;
4754;SDS011;2391;47.212;7.542;2023-05-24T08:19:38;10.50;;;6.17;;
4754;SDS011;2391;47.212;7.542;2023-05-24T08:22:04;11.43;;;6.40;;
4754;SDS011;2391;47.212;7.542;2023-05-24T08:24:30;7.90;;;6.40;;
4754;SDS011;2391;47.212;7.542;2023-05-24T08:26:56;8.27;;;6.93;;
4754;SDS011;2391;47.212;7.542;2023-05-24T08:29:23;8.03;;;6.73;;
4754;SDS011;2391;47.212;7.542;2023-05-24T08:31:49;8.23;;;6.90;;
4754;SDS011;2391;47.212;7.542;2023-05-24T08:34:14;8.20;;;6.40;;
4754;SDS011;2391;47.212;7.542;2023-05-24T08:36:40;10.17;;;6.40;;
4754;SDS011;2391;47.212;7.542;2023-05-24T08:39:08;13.93;;;7.27;;
4754;SDS011;2391;47.212;7.542;2023-05-24T08:41:34;11.50;;;7.03;;
4754;SDS011;2391;47.212;7.542;2023-05-24T08:44:06;7.37;;;6.33;;
4754;SDS011;2391;47.212;7.542;2023-05-24T08:46:35;12.30;;;6.87;;
4754;SDS011;2391;47.212;7.542;2023-05-24T08:49:02;8.00;;;7.03;;
4754;SDS011;2391;47.212;7.542;2023-05-24T08:51:28;6.40;;;5.70;;
4754;SDS011;2391;47.212;7.542;2023-05-24T08:53:58;9.07;;;6.80;;
4754;SDS011;2391;47.212;7.542;2023-05-24T08:56:24;8.10;;;5.80;;
4754;SDS011;2391;47.212;7.542;2023-05-24T08:58:51;7.83;;;5.93;;
4754;SDS011;2391;47.212;7.542;2023-05-24T09:01:19;7.47;;;6.10;;
4754;SDS011;2391;47.212;7.542;2023-05-24T09:03:46;10.53;;;6.43;;
4754;SDS011;2391;47.212;7.542;2023-05-24T09:06:12;8.60;;;6.60;;
4754;SDS011;2391;47.212;7.542;2023-05-24T09:08:41;7.53;;;6.60;;
4754;SDS011;2391;47.212;7.542;2023-05-24T09:11:08;8.90;;;6.67;;
4754;SDS011;2391;47.212;7.542;2023-05-24T09:13:34;7.97;;;6.47;;
4754;SDS011;2391;47.212;7.542;2023-05-24T09:16:00;9.23;;;6.50;;
4754;SDS011;2391;47.212;7.542;2023-05-24T09:18:27;7.30;;;6.33;;
4754;SDS011;2391;47.212;7.542;2023-05-24T09:20:53;8.77;;;6.80;;
4754;SDS011;2391;47.212;7.542;2023-05-24T09:23:19;10.00;;;6.07;;
4754;SDS011;2391;47.212;7.542;2023-05-24T09:25:46;7.73;;;6.03;;
4754;SDS011;2391;47.212;7.542;2023-05-24T09:28:12;11.37;;;7.27;;
4754;SDS011;2391;47.212;7.542;2023-05-24T09:30:43;8.10;;;6.40;;
4754;SDS011;2391;47.212;7.542;2023-05-24T09:33:10;9.53;;;6.03;;
4754;SDS011;2391;47.212;7.542;2023-05-24T09:35:38;9.73;;;6.70;;
4754;SDS011;2391;47.212;7.542;2023-05-24T09:38:15;9.53;;;7.20;;
4754;SDS011;2391;47.212;7.542;2023-05-24T09:40:43;9.30;;;5.60;;
4754;SDS011;2391;47.212;7.542;2023-05-24T09:43:09;8.37;;;5.90;;
4754;SDS011;2391;47.212;7.542;2023-05-24T09:45:41;11.20;;;6.23;;
4754;SDS011;2391;47.212;7.542;2023-05-24T09:48:11;7.10;;;6.10;;
4754;SDS011;2391;47.212;7.542;2023-05-24T09:50:38;13.73;;;5.73;;
4754;SDS011;2391;47.212;7.542;2023-05-24T09:53:04;9.87;;;5.93;;
4754;SDS011;2391;47.212;7.542;2023-05-24T09:55:30;7.43;;;6.30;;
4754;SDS011;2391;47.212;7.542;2023-05-24T09:58:03;8.80;;;6.00;;
4754;SDS011;2391;47.212;7.542;2023-05-24T10:00:36;7.50;;;6.17;;
4754;SDS011;2391;47.212;7.542;2023-05-24T10:03:06;10.20;;;7.00;;
4754;SDS011;2391;47.212;7.542;2023-05-24T10:05:36;11.80;;;6.77;;
4754;SDS011;2391;47.212;7.542;2023-05-24T10:08:03;6.83;;;6.13;;
4754;SDS011;2391;47.212;7.542;2023-05-24T10:10:30;10.20;;;7.10;;
4754;SDS011;2391;47.212;7.542;2023-05-24T10:12:58;8.97;;;6.40;;
4754;SDS011;2391;47.212;7.542;2023-05-24T10:15:24;10.07;;;6.77;;
4754;SDS011;2391;47.212;7.542;2023-05-24T10:17:56;6.90;;;6.00;;
4754;SDS011;2391;47.212;7.542;2023-05-24T10:20:20;7.40;;;5.80;;
4754;SDS011;2391;47.212;7.542;2023-05-24T10:22:50;7.03;;;5.80;;
4754;SDS011;2391;47.212;7.542;2023-05-24T10:25:20;7.57;;;6.20;;
4754;SDS011;2391;47.212;7.542;2023-05-24T10:27:49;7.30;;;5.73;;
4754;SDS011;2391;47.212;7.542;2023-05-24T10:30:25;8.80;;;5.87;;
4754;SDS011;2391;47.212;7.542;2023-05-24T10:32:54;8.10;;;6.30;;
4754;SDS011;2391;47.212;7.542;2023-05-24T10:35:21;6.67;;;5.83;;
4754;SDS011;2391;47.212;7.542;2023-05-24T10:37:47;7.23;;;5.70;;
4754;SDS011;2391;47.212;7.542;2023-05-24T10:40:17;6.70;;;6.00;;
4754;SDS011;2391;47.212;7.542;2023-05-24T10:42:44;10.23;;;5.43;;
4754;SDS011;2391;47.212;7.542;2023-05-24T10:47:52;8.80;;;6.73;;
4754;SDS011;2391;47.212;7.542;2023-05-24T10:50:19;13.23;;;6.27;;
4754;SDS011;2391;47.212;7.542;2023-05-24T10:52:49;9.97;;;5.90;;
4754;SDS011;2391;47.212;7.542;2023-05-24T10:55:15;7.30;;;6.00;;
4754;SDS011;2391;47.212;7.542;2023-05-24T10:57:45;9.43;;;6.90;;
4754;SDS011;2391;47.212;7.542;2023-05-24T11:03:01;6.63;;;5.97;;
4754;SDS011;2391;47.212;7.542;2023-05-24T11:08:30;9.67;;;5.10;;
4754;SDS011;2391;47.212;7.542;2023-05-24T11:11:01;5.93;;;5.40;;
4754;SDS011;2391;47.212;7.542;2023-05-24T11:13:35;11.03;;;5.50;;
4754;SDS011;2391;47.212;7.542;2023-05-24T11:16:02;9.03;;;5.00;;
4754;SDS011;2391;47.212;7.542;2023-05-24T11:18:28;7.20;;;5.13;;
4754;SDS011;2391;47.212;7.542;2023-05-24T11:20:54;5.37;;;4.87;;
4754;SDS011;2391;47.212;7.542;2023-05-24T11:23:21;5.77;;;4.83;;
4754;SDS011;2391;47.212;7.542;2023-05-24T11:25:47;9.93;;;4.97;;
4754;SDS011;2391;47.212;7.542;2023-05-24T11:28:13;5.20;;;4.57;;
4754;SDS011;2391;47.212;7.542;2023-05-24T11:33:22;5.53;;;5.03;;
4754;SDS011;2391;47.212;7.542;2023-05-24T11:35:47;7.07;;;5.10;;
4754;SDS011;2391;47.212;7.542;2023-05-24T11:38:14;9.60;;;4.90;;
4754;SDS011;2391;47.212;7.542;2023-05-24T11:40:41;9.80;;;4.70;;
4754;SDS011;2391;47.212;7.542;2023-05-24T11:43:10;5.70;;;4.80;;
4754;SDS011;2391;47.212;7.542;2023-05-24T11:45:38;7.17;;;4.37;;
4754;SDS011;2391;47.212;7.542;2023-05-24T11:48:04;5.90;;;5.03;;
4754;SDS011;2391;47.212;7.542;2023-05-24T11:50:30;5.30;;;4.40;;
4754;SDS011;2391;47.212;7.542;2023-05-24T11:53:02;5.87;;;5.03;;
4754;SDS011;2391;47.212;7.542;2023-05-24T11:55:28;6.50;;;4.87;;
4754;SDS011;2391;47.212;7.542;2023-05-24T11:57:56;5.60;;;4.90;;
4754;SDS011;2391;47.212;7.542;2023-05-24T12:00:23;5.73;;;5.17;;
4754;SDS011;2391;47.212;7.542;2023-05-24T12:02:49;8.30;;;5.30;;
4754;SDS011;2391;47.212;7.542;2023-05-24T12:05:17;5.57;;;5.07;;
4754;SDS011;2391;47.212;7.542;2023-05-24T12:07:43;5.10;;;4.60;;
4754;SDS011;2391;47.212;7.542;2023-05-24T12:10:15;6.77;;;4.63;;
4754;SDS011;2391;47.212;7.542;2023-05-24T12:12:42;9.77;;;5.63;;
4754;SDS011;2391;47.212;7.542;2023-05-24T12:15:09;7.13;;;5.60;;
4754;SDS011;2391;47.212;7.542;2023-05-24T12:17:36;5.80;;;5.07;;
4754;SDS011;2391;47.212;7.542;2023-05-24T12:20:02;8.20;;;5.80;;
4754;SDS011;2391;47.212;7.542;2023-05-24T12:22:30;6.90;;;5.77;;
4754;SDS011;2391;47.212;7.542;2023-05-24T12:24:56;5.70;;;5.00;;
4754;SDS011;2391;47.212;7.542;2023-05-24T12:27:28;9.57;;;5.80;;
4754;SDS011;2391;47.212;7.542;2023-05-24T12:29:56;6.90;;;5.10;;
4754;SDS011;2391;47.212;7.542;2023-05-24T12:32:23;6.60;;;5.30;;
4754;SDS011;2391;47.212;7.542;2023-05-24T12:34:49;6.13;;;5.53;;
4754;SDS011;2391;47.212;7.542;2023-05-24T12:37:15;7.73;;;5.57;;
4754;SDS011;2391;47.212;7.542;2023-05-24T12:39:42;7.10;;;5.20;;
4754;SDS011;2391;47.212;7.542;2023-05-24T12:42:08;7.67;;;5.30;;
4754;SDS011;2391;47.212;7.542;2023-05-24T12:44:36;8.40;;;5.00;;
4754;SDS011;2391;47.212;7.542;2023-05-24T12:47:03;8.00;;;5.03;;
4754;SDS011;2391;47.212;7.542;2023-05-24T12:49:30;9.33;;;4.90;;
4754;SDS011;2391;47.212;7.542;2023-05-24T12:51:57;5.73;;;4.80;;
4754;SDS011;2391;47.212;7.542;2023-05-24T12:54:24;11.20;;;4.90;;
4754;SDS011;2391;47.212;7.542;2023-05-24T12:56:51;5.30;;;4.40;;
4754;SDS011;2391;47.212;7.542;2023-05-24T12:59:17;4.70;;;3.93;;
4754;SDS011;2391;47.212;7.542;2023-05-24T13:01:43;4.40;;;3.83;;
4754;SDS011;2391;47.212;7.542;2023-05-24T13:04:11;5.77;;;4.03;;
4754;SDS011;2391;47.212;7.542;2023-05-24T13:06:37;5.20;;;3.83;;
4754;SDS011;2391;47.212;7.542;2023-05-24T13:09:03;5.10;;;3.63;;
4754;SDS011;2391;47.212;7.542;2023-05-24T13:11:30;6.70;;;3.43;;
4754;SDS011;2391;47.212;7.542;2023-05-24T13:13:56;4.60;;;3.57;;
4754;SDS011;2391;47.212;7.542;2023-05-24T13:16:23;3.00;;;2.80;;
4754;SDS011;2391;47.212;7.542;2023-05-24T13:18:50;3.00;;;2.80;;
4754;SDS011;2391;47.212;7.542;2023-05-24T13:21:15;3.60;;;3.30;;
4754;SDS011;2391;47.212;7.542;2023-05-24T13:23:41;4.73;;;2.90;;
4754;SDS011;2391;47.212;7.542;2023-05-24T13:26:07;6.73;;;3.30;;
4754;SDS011;2391;47.212;7.542;2023-05-24T13:28:33;3.80;;;3.50;;
4754;SDS011;2391;47.212;7.542;2023-05-24T13:30:59;3.47;;;3.17;;
4754;SDS011;2391;47.212;7.542;2023-05-24T13:33:25;2.90;;;2.70;;
4754;SDS011;2391;47.212;7.542;2023-05-24T13:35:51;3.17;;;2.87;;
4754;SDS011;2391;47.212;7.542;2023-05-24T13:38:18;5.20;;;3.27;;
4754;SDS011;2391;47.212;7.542;2023-05-24T13:40:45;2.80;;;2.60;;
4754;SDS011;2391;47.212;7.542;2023-05-24T13:43:11;4.30;;;2.73;;
4754;SDS011;2391;47.212;7.542;2023-05-24T13:45:37;3.47;;;2.87;;
4754;SDS011;2391;47.212;7.542;2023-05-24T13:48:03;2.57;;;2.27;;
4754;SDS011;2391;47.212;7.542;2023-05-24T13:50:30;3.00;;;2.40;;
4754;SDS011;2391;47.212;7.542;2023-05-24T13:52:57;4.83;;;2.40;;
4754;SDS011;2391;47.212;7.542;2023-05-24T13:55:25;3.10;;;2.00;;
4754;SDS011;2391;47.212;7.542;2023-05-24T13:57:53;2.70;;;2.50;;
4754;SDS011;2391;47.212;7.542;2023-05-24T14:00:20;2.30;;;2.10;;
4754;SDS011;2391;47.212;7.542;2023-05-24T14:02:46;3.60;;;2.20;;
4754;SDS011;2391;47.212;7.542;2023-05-24T14:05:12;3.57;;;2.23;;
4754;SDS011;2391;47.212;7.542;2023-05-24T14:07:38;2.23;;;2.03;;
4754;SDS011;2391;47.212;7.542;2023-05-24T14:10:05;3.10;;;2.90;;
4754;SDS011;2391;47.212;7.542;2023-05-24T14:12:31;2.43;;;2.23;;
4754;SDS011;2391;47.212;7.542;2023-05-24T14:14:57;3.10;;;2.50;;
4754;SDS011;2391;47.212;7.542;2023-05-24T14:17:23;3.23;;;2.63;;
4754;SDS011;2391;47.212;7.542;2023-05-24T14:19:49;3.00;;;2.70;;
4754;SDS011;2391;47.212;7.542;2023-05-24T14:22:15;4.60;;;3.80;;
4754;SDS011;2391;47.212;7.542;2023-05-24T14:24:40;5.23;;;2.97;;
4754;SDS011;2391;47.212;7.542;2023-05-24T14:27:06;5.07;;;3.37;;
4754;SDS011;2391;47.212;7.542;2023-05-24T14:29:32;5.97;;;3.50;;
4754;SDS011;2391;47.212;7.542;2023-05-24T14:31:57;3.67;;;3.37;;
4754;SDS011;2391;47.212;7.542;2023-05-24T14:34:23;3.73;;;3.13;;
4754;SDS011;2391;47.212;7.542;2023-05-24T14:36:49;4.90;;;2.87;;
4754;SDS011;2391;47.212;7.542;2023-05-24T14:39:15;2.87;;;2.47;;
4754;SDS011;2391;47.212;7.542;2023-05-24T14:41:40;7.43;;;4.00;;
4754;SDS011;2391;47.212;7.542;2023-05-24T14:44:06;4.70;;;3.23;;
4754;SDS011;2391;47.212;7.542;2023-05-24T14:46:32;4.50;;;3.37;;
4754;SDS011;2391;47.212;7.542;2023-05-24T14:48:58;3.30;;;3.00;;
4754;SDS011;2391;47.212;7.542;2023-05-24T14:51:23;5.20;;;2.83;;
4754;SDS011;2391;47.212;7.542;2023-05-24T14:53:49;4.00;;;3.20;;
4754;SDS011;2391;47.212;7.542;2023-05-24T14:56:15;3.13;;;2.80;;
4754;SDS011;2391;47.212;7.542;2023-05-24T14:58:41;3.57;;;3.07;;
4754;SDS011;2391;47.212;7.542;2023-05-24T15:01:06;3.10;;;2.80;;
4754;SDS011;2391;47.212;7.542;2023-05-24T15:03:33;3.40;;;3.10;;
4754;SDS011;2391;47.212;7.542;2023-05-24T15:05:59;4.77;;;3.33;;
4754;SDS011;2391;47.212;7.542;2023-05-24T15:08:25;8.27;;;3.50;;
4754;SDS011;2391;47.212;7.542;2023-05-24T15:10:51;5.20;;;3.23;;
4754;SDS011;2391;47.212;7.542;2023-05-24T15:13:17;3.90;;;3.60;;
4754;SDS011;2391;47.212;7.542;2023-05-24T15:15:43;5.77;;;3.43;;
4754;SDS011;2391;47.212;7.542;2023-05-24T15:18:09;5.90;;;3.83;;
4754;SDS011;2391;47.212;7.542;2023-05-24T15:20:35;4.10;;;3.70;;
4754;SDS011;2391;47.212;7.542;2023-05-24T15:23:01;7.43;;;4.07;;
4754;SDS011;2391;47.212;7.542;2023-05-24T15:25:27;4.97;;;4.50;;
4754;SDS011;2391;47.212;7.542;2023-05-24T15:27:53;5.23;;;4.67;;
4754;SDS011;2391;47.212;7.542;2023-05-24T15:30:19;5.10;;;4.70;;
4754;SDS011;2391;47.212;7.542;2023-05-24T15:32:45;5.97;;;4.30;;
4754;SDS011;2391;47.212;7.542;2023-05-24T15:35:11;11.43;;;4.20;;
4754;SDS011;2391;47.212;7.542;2023-05-24T15:37:37;5.90;;;4.17;;